Time;durP1;ratioP1;P1;durP2;ratioP2;P2;SDS_P1;SDS_P2;PMS_P1;PMS_P2;Temp;Humidity;BMP_temperature;BMP_pressure;BME280_temperature;BME280_humidity;BME280_pressure;Samples;Min_cycle;Max_cycle;Signal;HPM_P1;HPM_P2
2023/12/12 00:00:05;;;;;;;11.90;11.30;;;;;;;;;;5079264;28;20073;-64
2023/12/12 00:02:31;;;;;;;12.30;11.70;;;;;;;;;;5074231;28;20028;-64
2023/12/12 00:04:56;;;;;;;11.60;11.10;;;;;;;;;;5079305;28;20434;-64
2023/12/12 00:07:21;;;;;;;12.13;11.52;;;;;;;;;;5078306;28;20053;-64
2023/12/12 00:09:46;;;;;;;12.02;11.43;;;;;;;;;;5076886;28;20113;-64
2023/12/12 00:12:12;;;;;;;12.13;11.52;;;;;;;;;;5066383;28;20024;-63
2023/12/12 00:14:37;;;;;;;12.45;11.85;;;;;;;;;;5069422;28;20025;-64
2023/12/12 00:17:03;;;;;;;12.70;12.00;;;;;;;;;;5078052;28;21504;-64
2023/12/12 00:19:28;;;;;;;11.73;11.15;;;;;;;;;;5070775;28;20024;-64
2023/12/12 00:21:54;;;;;;;12.80;12.10;;;;;;;;;;5075100;28;20032;-65
2023/12/12 00:24:20;;;;;;;11.85;11.27;;;;;;;;;;5072270;28;20077;-66
2023/12/12 00:26:46;;;;;;;12.52;11.93;;;;;;;;;;5078646;28;20111;-65
2023/12/12 00:29:11;;;;;;;12.82;12.18;;;;;;;;;;5076189;28;20031;-65
2023/12/12 00:31:36;;;;;;;12.23;11.63;;;;;;;;;;5070888;28;20020;-64
2023/12/12 00:34:02;;;;;;;12.80;12.15;;;;;;;;;;5077066;28;20594;-64
2023/12/12 00:36:27;;;;;;;12.10;11.50;;;;;;;;;;5068111;28;20032;-64
2023/12/12 00:38:52;;;;;;;12.07;11.48;;;;;;;;;;5073795;28;20086;-64
2023/12/12 00:41:17;;;;;;;12.23;11.63;;;;;;;;;;5072927;28;20020;-64
2023/12/12 00:43:44;;;;;;;12.05;11.45;;;;;;;;;;5074086;28;20048;-63
2023/12/12 00:46:10;;;;;;;12.70;12.00;;;;;;;;;;5070527;28;20107;-63
2023/12/12 00:48:35;;;;;;;12.00;11.40;;;;;;;;;;5068401;28;20017;-64
2023/12/12 00:51:00;;;;;;;11.70;11.15;;;;;;;;;;5076018;28;20178;-63
2023/12/12 00:53:26;;;;;;;11.77;11.18;;;;;;;;;;5073617;28;20063;-64
2023/12/12 00:55:51;;;;;;;11.77;11.18;;;;;;;;;;5078660;28;20024;-64
2023/12/12 00:58:16;;;;;;;12.18;11.57;;;;;;;;;;5078020;28;20055;-65
2023/12/12 01:00:42;;;;;;;11.88;11.27;;;;;;;;;;5075770;28;20028;-64
2023/12/12 01:03:07;;;;;;;12.43;11.82;;;;;;;;;;5071343;28;20033;-64
2023/12/12 01:05:32;;;;;;;11.98;11.38;;;;;;;;;;5075446;28;20019;-64
2023/12/12 01:07:58;;;;;;;12.93;12.23;;;;;;;;;;5069170;28;20028;-64
2023/12/12 01:10:23;;;;;;;11.93;11.32;;;;;;;;;;5080395;28;20095;-62
2023/12/12 01:12:48;;;;;;;12.30;11.70;;;;;;;;;;5071716;28;20082;-64
2023/12/12 01:15:14;;;;;;;12.13;11.52;;;;;;;;;;5070114;28;20037;-62
2023/12/12 01:17:39;;;;;;;11.85;11.25;;;;;;;;;;5071265;28;20028;-63
2023/12/12 01:20:07;;;;;;;11.48;10.98;;;;;;;;;;5072043;28;20025;-64
2023/12/12 01:22:33;;;;;;;12.52;11.85;;;;;;;;;;5074825;28;20542;-63
2023/12/12 01:24:58;;;;;;;12.57;11.93;;;;;;;;;;5074728;28;20078;-61
2023/12/12 01:27:23;;;;;;;11.55;11.00;;;;;;;;;;5075001;28;20032;-63
2023/12/12 01:29:49;;;;;;;12.15;11.55;;;;;;;;;;5070750;28;20017;-64
2023/12/12 01:32:14;;;;;;;12.20;11.60;;;;;;;;;;5072508;28;20050;-64
2023/12/12 01:34:39;;;;;;;12.32;11.73;;;;;;;;;;5071583;28;20384;-64
2023/12/12 01:37:05;;;;;;;12.00;11.40;;;;;;;;;;5076297;28;20039;-64
2023/12/12 01:39:30;;;;;;;12.20;11.60;;;;;;;;;;5070388;28;20402;-64
2023/12/12 01:41:55;;;;;;;12.90;12.20;;;;;;;;;;5072027;28;20039;-64
2023/12/12 01:44:21;;;;;;;12.55;11.90;;;;;;;;;;5070098;28;20028;-64
2023/12/12 01:46:47;;;;;;;12.25;11.65;;;;;;;;;;5068596;28;20043;-64
2023/12/12 01:49:13;;;;;;;12.85;12.15;;;;;;;;;;5070912;28;20016;-64
2023/12/12 01:51:38;;;;;;;11.38;10.85;;;;;;;;;;5074738;28;20012;-65
2023/12/12 01:54:05;;;;;;;11.65;11.05;;;;;;;;;;5071685;28;20028;-63
2023/12/12 01:56:31;;;;;;;11.32;10.82;;;;;;;;;;5069997;28;20024;-64
2023/12/12 01:58:57;;;;;;;12.35;11.75;;;;;;;;;;5070929;28;20502;-64
2023/12/12 02:01:23;;;;;;;12.38;11.70;;;;;;;;;;5071769;28;20071;-64
2023/12/12 02:03:51;;;;;;;12.05;11.45;;;;;;;;;;5070153;28;20020;-64
2023/12/12 02:06:21;;;;;;;12.00;11.40;;;;;;;;;;5071924;28;20029;-63
2023/12/12 02:08:47;;;;;;;12.02;11.43;;;;;;;;;;5080161;28;20118;-64
2023/12/12 02:11:13;;;;;;;12.57;11.98;;;;;;;;;;5069699;28;20049;-63
2023/12/12 02:13:38;;;;;;;12.25;11.65;;;;;;;;;;5079789;28;20024;-63
2023/12/12 02:16:03;;;;;;;12.50;11.90;;;;;;;;;;5076931;28;20385;-63
2023/12/12 02:18:29;;;;;;;12.60;11.93;;;;;;;;;;5075163;28;20028;-64
2023/12/12 02:20:54;;;;;;;12.18;11.57;;;;;;;;;;5072295;28;20021;-63
2023/12/12 02:23:19;;;;;;;11.35;10.85;;;;;;;;;;5075969;28;20020;-65
2023/12/12 02:25:45;;;;;;;11.45;10.95;;;;;;;;;;5070430;28;20016;-64
2023/12/12 02:28:12;;;;;;;11.90;11.30;;;;;;;;;;5072408;28;20530;-64
2023/12/12 02:30:38;;;;;;;11.27;10.77;;;;;;;;;;5070823;28;20051;-64
2023/12/12 02:33:04;;;;;;;11.63;11.02;;;;;;;;;;5071520;28;20056;-64
2023/12/12 02:35:31;;;;;;;12.00;11.40;;;;;;;;;;5076290;28;20841;-63
2023/12/12 02:37:56;;;;;;;11.38;10.88;;;;;;;;;;5071683;28;20040;-64
2023/12/12 02:40:21;;;;;;;13.07;12.38;;;;;;;;;;5068819;28;20032;-64
2023/12/12 02:42:48;;;;;;;11.73;11.13;;;;;;;;;;5077704;28;20028;-64
2023/12/12 02:45:14;;;;;;;13.10;12.40;;;;;;;;;;5070539;28;20031;-64
2023/12/12 02:47:39;;;;;;;11.57;11.02;;;;;;;;;;5082973;28;20113;-64
2023/12/12 02:50:04;;;;;;;11.60;11.10;;;;;;;;;;5074900;28;20017;-65
2023/12/12 02:52:30;;;;;;;11.68;11.10;;;;;;;;;;5075512;28;20032;-65
2023/12/12 02:54:55;;;;;;;11.20;10.70;;;;;;;;;;5074056;28;20024;-65
2023/12/12 02:57:21;;;;;;;11.82;11.23;;;;;;;;;;5076706;28;20107;-64
2023/12/12 02:59:47;;;;;;;13.32;12.55;;;;;;;;;;5070904;28;20058;-64
2023/12/12 03:02:12;;;;;;;11.80;11.20;;;;;;;;;;5073271;28;20032;-64
2023/12/12 03:04:42;;;;;;;11.57;10.98;;;;;;;;;;5081165;28;20383;-64
2023/12/12 03:07:07;;;;;;;12.20;11.60;;;;;;;;;;5073702;28;20021;-64
2023/12/12 03:09:32;;;;;;;11.45;10.93;;;;;;;;;;5073528;28;20021;-64
2023/12/12 03:11:57;;;;;;;11.73;11.13;;;;;;;;;;5074337;28;20024;-65
2023/12/12 03:14:26;;;;;;;11.80;11.20;;;;;;;;;;5075312;28;20480;-63
2023/12/12 03:16:52;;;;;;;11.45;10.85;;;;;;;;;;5067367;28;20099;-64
2023/12/12 03:19:17;;;;;;;11.73;11.13;;;;;;;;;;5074497;28;20480;-64
2023/12/12 03:21:43;;;;;;;11.40;10.90;;;;;;;;;;5077043;28;20423;-64
2023/12/12 03:24:08;;;;;;;12.18;11.57;;;;;;;;;;5073837;28;20480;-64
2023/12/12 03:26:33;;;;;;;11.25;10.75;;;;;;;;;;5075214;28;20090;-65
2023/12/12 03:28:59;;;;;;;12.05;11.45;;;;;;;;;;5075401;28;20502;-64
2023/12/12 03:31:24;;;;;;;11.77;11.18;;;;;;;;;;5077979;28;20014;-65
2023/12/12 03:33:49;;;;;;;11.70;11.10;;;;;;;;;;5073146;28;20077;-64
2023/12/12 03:36:15;;;;;;;11.70;11.10;;;;;;;;;;5071216;28;20029;-64
2023/12/12 03:38:40;;;;;;;11.50;10.90;;;;;;;;;;5073196;28;20513;-64
2023/12/12 03:41:05;;;;;;;12.85;12.15;;;;;;;;;;5077436;28;20028;-64
2023/12/12 03:43:30;;;;;;;11.98;11.38;;;;;;;;;;5071056;28;20032;-65
2023/12/12 03:45:56;;;;;;;11.40;10.90;;;;;;;;;;5074457;28;20024;-64
2023/12/12 03:48:21;;;;;;;11.10;10.60;;;;;;;;;;5077259;28;20021;-65
2023/12/12 03:50:49;;;;;;;11.55;10.95;;;;;;;;;;5078225;28;20028;-63
2023/12/12 03:53:14;;;;;;;11.80;11.20;;;;;;;;;;5071600;28;20039;-65
2023/12/12 03:55:40;;;;;;;11.10;10.60;;;;;;;;;;5072288;28;20035;-65
2023/12/12 03:58:05;;;;;;;12.02;11.43;;;;;;;;;;5072411;28;20028;-65
2023/12/12 04:00:31;;;;;;;11.75;11.15;;;;;;;;;;5071406;28;20026;-64
2023/12/12 04:02:57;;;;;;;11.90;11.30;;;;;;;;;;5071638;28;20036;-63
2023/12/12 04:05:24;;;;;;;14.18;13.27;;;;;;;;;;5072821;28;20090;-65
2023/12/12 04:07:49;;;;;;;11.93;11.32;;;;;;;;;;5064386;28;20020;-64
2023/12/12 04:10:15;;;;;;;11.63;11.02;;;;;;;;;;5079623;28;20036;-63
2023/12/12 04:12:41;;;;;;;11.40;10.88;;;;;;;;;;5075393;28;20475;-64
2023/12/12 04:15:07;;;;;;;11.93;11.32;;;;;;;;;;5070553;28;20598;-64
2023/12/12 04:17:32;;;;;;;11.23;10.73;;;;;;;;;;5069719;28;20035;-64
2023/12/12 04:19:57;;;;;;;11.68;11.07;;;;;;;;;;5071982;28;20063;-64
2023/12/12 04:22:23;;;;;;;11.07;10.57;;;;;;;;;;5069994;28;20385;-64
2023/12/12 04:24:49;;;;;;;11.75;11.15;;;;;;;;;;5070680;28;20434;-63
2023/12/12 04:27:15;;;;;;;11.90;11.30;;;;;;;;;;5071160;28;20111;-64
2023/12/12 04:29:40;;;;;;;12.25;11.65;;;;;;;;;;5067274;28;20087;-65
2023/12/12 04:32:06;;;;;;;12.40;11.75;;;;;;;;;;5066693;28;20043;-66
2023/12/12 04:34:32;;;;;;;11.85;11.25;;;;;;;;;;5071827;28;20388;-65
2023/12/12 04:36:57;;;;;;;12.20;11.60;;;;;;;;;;5072591;28;20023;-64
2023/12/12 04:39:22;;;;;;;12.27;11.68;;;;;;;;;;5073706;28;20028;-66
2023/12/12 04:41:48;;;;;;;12.27;11.68;;;;;;;;;;5074558;28;20067;-64
2023/12/12 04:44:13;;;;;;;12.00;11.40;;;;;;;;;;5067926;28;20078;-65
2023/12/12 04:46:38;;;;;;;12.80;12.10;;;;;;;;;;5071617;28;20062;-65
2023/12/12 04:49:04;;;;;;;11.93;11.32;;;;;;;;;;5075184;28;20121;-64
2023/12/12 04:51:29;;;;;;;12.82;12.13;;;;;;;;;;5073578;28;20098;-65
2023/12/12 04:53:54;;;;;;;12.15;11.55;;;;;;;;;;5076907;28;20024;-65
2023/12/12 04:56:20;;;;;;;12.63;11.98;;;;;;;;;;5070688;28;20500;-65
2023/12/12 04:58:46;;;;;;;12.65;11.98;;;;;;;;;;5071504;28;20094;-65
2023/12/12 05:01:11;;;;;;;13.15;12.45;;;;;;;;;;5071145;28;20467;-65
2023/12/12 05:03:37;;;;;;;12.23;11.63;;;;;;;;;;5070415;28;20036;-64
2023/12/12 05:06:02;;;;;;;11.85;11.25;;;;;;;;;;5077699;28;20024;-64
2023/12/12 05:08:27;;;;;;;13.25;12.55;;;;;;;;;;5071015;28;20476;-64
2023/12/12 05:10:53;;;;;;;12.02;11.43;;;;;;;;;;5069356;28;20030;-65
2023/12/12 05:13:18;;;;;;;13.27;12.52;;;;;;;;;;5071156;28;20032;-64
2023/12/12 05:15:44;;;;;;;12.18;11.57;;;;;;;;;;5066982;28;20507;-62
2023/12/12 05:18:09;;;;;;;13.32;12.57;;;;;;;;;;5068074;28;20563;-66
2023/12/12 05:20:35;;;;;;;12.60;11.95;;;;;;;;;;5070412;28;20115;-65
2023/12/12 05:23:00;;;;;;;13.63;12.82;;;;;;;;;;5083214;28;20498;-62
2023/12/12 05:25:25;;;;;;;13.00;12.30;;;;;;;;;;5072849;28;20426;-64
2023/12/12 05:27:51;;;;;;;12.40;11.75;;;;;;;;;;5071604;28;20028;-65
2023/12/12 05:30:17;;;;;;;13.70;12.90;;;;;;;;;;5073918;28;20028;-63
2023/12/12 05:32:42;;;;;;;12.60;11.90;;;;;;;;;;5069433;28;20476;-64
2023/12/12 05:35:08;;;;;;;11.95;11.35;;;;;;;;;;5069871;28;20028;-64
2023/12/12 05:37:33;;;;;;;13.02;12.32;;;;;;;;;;5067642;28;20318;-64
2023/12/12 05:39:59;;;;;;;12.50;11.82;;;;;;;;;;5069971;28;20063;-62
2023/12/12 05:42:26;;;;;;;14.07;13.23;;;;;;;;;;5068647;28;20426;-63
2023/12/12 05:44:51;;;;;;;11.63;11.02;;;;;;;;;;5069309;28;20033;-61
2023/12/12 05:47:16;;;;;;;12.65;11.95;;;;;;;;;;5069384;28;20028;-61
2023/12/12 05:49:42;;;;;;;12.60;11.90;;;;;;;;;;5067840;28;20418;-65
2023/12/12 05:52:07;;;;;;;12.55;11.85;;;;;;;;;;5071476;28;20032;-64
2023/12/12 05:54:35;;;;;;;12.98;12.27;;;;;;;;;;5070741;28;20101;-64
2023/12/12 05:57:01;;;;;;;13.05;12.32;;;;;;;;;;5070818;28;20020;-66
2023/12/12 05:59:26;;;;;;;12.90;12.20;;;;;;;;;;5069187;28;20024;-66
2023/12/12 06:01:51;;;;;;;12.43;11.75;;;;;;;;;;5069069;28;20025;-66
2023/12/12 06:04:17;;;;;;;13.07;12.38;;;;;;;;;;5069646;28;20028;-66
2023/12/12 06:06:42;;;;;;;12.10;11.50;;;;;;;;;;5073301;28;20032;-66
2023/12/12 06:09:09;;;;;;;12.95;12.25;;;;;;;;;;5065924;28;20108;-66
2023/12/12 06:11:36;;;;;;;12.50;11.80;;;;;;;;;;5072347;28;20017;-66
2023/12/12 06:14:03;;;;;;;12.23;11.55;;;;;;;;;;5071172;28;20506;-65
2023/12/12 06:16:28;;;;;;;13.02;12.32;;;;;;;;;;5067492;28;20056;-66
2023/12/12 06:18:54;;;;;;;11.63;11.02;;;;;;;;;;5071888;28;20555;-65
2023/12/12 06:21:19;;;;;;;11.95;11.35;;;;;;;;;;5071042;28;20107;-65
2023/12/12 06:23:44;;;;;;;12.93;12.20;;;;;;;;;;5075475;28;20024;-65
2023/12/12 06:26:10;;;;;;;12.57;11.88;;;;;;;;;;5070615;28;20071;-66
2023/12/12 06:28:35;;;;;;;12.70;12.00;;;;;;;;;;5069753;28;20021;-66
2023/12/12 06:31:01;;;;;;;12.07;11.48;;;;;;;;;;5071846;28;20055;-66
2023/12/12 06:33:28;;;;;;;12.07;11.48;;;;;;;;;;5073168;28;20070;-66
2023/12/12 06:35:54;;;;;;;12.13;11.52;;;;;;;;;;5075946;28;20020;-64
2023/12/12 06:38:19;;;;;;;12.65;12.05;;;;;;;;;;5071330;28;20025;-64
2023/12/12 06:40:45;;;;;;;13.77;12.98;;;;;;;;;;5066939;28;20029;-67
2023/12/12 06:43:11;;;;;;;12.40;11.80;;;;;;;;;;5063390;28;20037;-68
2023/12/12 06:45:37;;;;;;;12.73;12.02;;;;;;;;;;5062018;28;20105;-71
2023/12/12 06:48:02;;;;;;;11.95;11.35;;;;;;;;;;5068408;28;20150;-72
2023/12/12 06:50:28;;;;;;;12.43;11.80;;;;;;;;;;5064789;28;20017;-74
2023/12/12 06:52:53;;;;;;;13.57;12.82;;;;;;;;;;5064978;28;20021;-71
2023/12/12 06:55:18;;;;;;;13.13;12.40;;;;;;;;;;5065201;28;20036;-67
2023/12/12 06:57:44;;;;;;;12.80;12.10;;;;;;;;;;5064160;28;20024;-70
2023/12/12 07:00:11;;;;;;;12.00;11.40;;;;;;;;;;5064542;28;20094;-72
2023/12/12 07:02:36;;;;;;;12.88;12.18;;;;;;;;;;5064165;28;20047;-70
2023/12/12 07:05:04;;;;;;;12.70;12.00;;;;;;;;;;5061922;28;20484;-71
2023/12/12 07:07:29;;;;;;;13.15;12.40;;;;;;;;;;5065417;28;20052;-70
2023/12/12 07:09:54;;;;;;;11.93;11.32;;;;;;;;;;5064221;28;20056;-70
2023/12/12 07:12:20;;;;;;;12.32;11.68;;;;;;;;;;5070174;28;20028;-72
2023/12/12 07:14:46;;;;;;;12.63;11.93;;;;;;;;;;5068161;28;20029;-68
2023/12/12 07:17:11;;;;;;;12.05;11.45;;;;;;;;;;5063747;28;20105;-69
2023/12/12 07:19:37;;;;;;;13.52;12.73;;;;;;;;;;5069213;28;20033;-69
2023/12/12 07:22:02;;;;;;;13.95;13.15;;;;;;;;;;5065508;28;20779;-70
2023/12/12 07:24:28;;;;;;;12.98;12.27;;;;;;;;;;5058350;28;20025;-71
2023/12/12 07:26:53;;;;;;;13.48;12.68;;;;;;;;;;5071520;28;20017;-69
2023/12/12 07:29:19;;;;;;;12.57;11.88;;;;;;;;;;5065440;28;20044;-67
2023/12/12 07:31:48;;;;;;;12.65;11.95;;;;;;;;;;5068876;28;20056;-67
2023/12/12 07:34:13;;;;;;;12.63;11.93;;;;;;;;;;5064782;28;20059;-68
2023/12/12 07:36:39;;;;;;;12.80;12.10;;;;;;;;;;5069643;28;20060;-69
2023/12/12 07:39:05;;;;;;;12.82;12.13;;;;;;;;;;5065003;28;20078;-66
2023/12/12 07:41:33;;;;;;;13.10;12.40;;;;;;;;;;5071862;28;20103;-66
2023/12/12 07:43:59;;;;;;;14.00;13.15;;;;;;;;;;5068759;28;20077;-69
2023/12/12 07:46:24;;;;;;;14.52;13.63;;;;;;;;;;5056966;28;20033;-71
2023/12/12 07:48:50;;;;;;;13.80;13.00;;;;;;;;;;5060641;28;20392;-67
2023/12/12 07:51:15;;;;;;;13.23;12.52;;;;;;;;;;5067318;28;20025;-69
2023/12/12 07:53:40;;;;;;;14.50;13.63;;;;;;;;;;5064543;28;20026;-69
2023/12/12 07:56:06;;;;;;;13.90;13.10;;;;;;;;;;5062654;28;20037;-71
2023/12/12 07:58:35;;;;;;;13.00;12.30;;;;;;;;;;5068361;28;20052;-71
2023/12/12 08:01:00;;;;;;;13.48;12.75;;;;;;;;;;5069532;28;20027;-70
2023/12/12 08:03:26;;;;;;;12.82;12.13;;;;;;;;;;5061339;28;20028;-69
2023/12/12 08:05:51;;;;;;;12.32;11.70;;;;;;;;;;5061077;28;20040;-69
2023/12/12 08:08:16;;;;;;;12.95;12.25;;;;;;;;;;5057670;28;20028;-70
2023/12/12 08:10:42;;;;;;;12.65;12.05;;;;;;;;;;5067169;28;20064;-64
2023/12/12 08:13:10;;;;;;;12.82;12.23;;;;;;;;;;5062425;28;20124;-69
2023/12/12 08:15:36;;;;;;;14.05;13.35;;;;;;;;;;5065184;28;20053;-69
2023/12/12 08:18:01;;;;;;;14.40;13.70;;;;;;;;;;5065735;28;20388;-71
2023/12/12 08:20:27;;;;;;;13.82;13.13;;;;;;;;;;5065128;28;20047;-69
2023/12/12 08:22:52;;;;;;;14.20;13.50;;;;;;;;;;5062922;28;20025;-69
2023/12/12 08:25:20;;;;;;;14.80;14.00;;;;;;;;;;5062881;28;20360;-69
2023/12/12 08:27:46;;;;;;;16.40;15.50;;;;;;;;;;5066763;28;20480;-69
2023/12/12 08:30:12;;;;;;;15.85;14.95;;;;;;;;;;5061217;28;20374;-69
2023/12/12 08:32:37;;;;;;;16.38;15.48;;;;;;;;;;5057321;28;20147;-72
2023/12/12 08:35:04;;;;;;;16.05;15.15;;;;;;;;;;5063405;28;20085;-70
2023/12/12 08:37:29;;;;;;;15.43;14.60;;;;;;;;;;5071147;28;20120;-70
2023/12/12 08:39:54;;;;;;;14.43;13.68;;;;;;;;;;5065018;28;20044;-70
2023/12/12 08:42:20;;;;;;;16.60;15.60;;;;;;;;;;5056863;28;20032;-67
2023/12/12 08:44:45;;;;;;;14.50;13.70;;;;;;;;;;5063651;28;20187;-70
2023/12/12 08:47:10;;;;;;;14.77;13.98;;;;;;;;;;5059797;28;20976;-69
2023/12/12 08:49:37;;;;;;;16.50;15.52;;;;;;;;;;5065361;28;20118;-69
2023/12/12 08:52:08;;;;;;;16.50;15.50;;;;;;;;;;5067542;28;20543;-70
2023/12/12 08:54:36;;;;;;;14.63;13.82;;;;;;;;;;5063842;28;20693;-72
2023/12/12 08:57:02;;;;;;;15.63;14.73;;;;;;;;;;5066514;28;20408;-70
2023/12/12 08:59:28;;;;;;;13.60;12.90;;;;;;;;;;5059717;28;20102;-74
2023/12/12 09:01:53;;;;;;;14.43;13.63;;;;;;;;;;5061429;28;20013;-69
2023/12/12 09:04:19;;;;;;;14.68;13.88;;;;;;;;;;5044148;28;20044;-71
2023/12/12 09:06:46;;;;;;;13.75;13.05;;;;;;;;;;5064130;28;20016;-69
2023/12/12 09:09:12;;;;;;;14.43;13.63;;;;;;;;;;5065522;28;20024;-71
2023/12/12 09:11:39;;;;;;;13.98;13.18;;;;;;;;;;5059852;28;20025;-70
2023/12/12 09:14:04;;;;;;;14.20;13.40;;;;;;;;;;5063233;28;20025;-71
2023/12/12 09:16:31;;;;;;;14.13;13.32;;;;;;;;;;5057348;28;20520;-71
2023/12/12 09:18:56;;;;;;;14.00;13.20;;;;;;;;;;5062473;28;20025;-69
2023/12/12 09:21:21;;;;;;;13.55;12.85;;;;;;;;;;5066568;28;20038;-69
2023/12/12 09:23:47;;;;;;;13.75;13.02;;;;;;;;;;5062966;28;20032;-70
2023/12/12 09:26:15;;;;;;;14.60;13.80;;;;;;;;;;5059070;28;20081;-70
2023/12/12 09:28:41;;;;;;;13.48;12.77;;;;;;;;;;5058391;28;20537;-71
2023/12/12 09:31:07;;;;;;;14.02;13.23;;;;;;;;;;5062228;28;20028;-69
2023/12/12 09:33:34;;;;;;;14.30;13.50;;;;;;;;;;5062708;28;20025;-71
2023/12/12 09:35:59;;;;;;;13.93;13.15;;;;;;;;;;5062379;28;20497;-68
2023/12/12 09:38:25;;;;;;;12.93;12.23;;;;;;;;;;5061312;28;20071;-69
2023/12/12 09:40:51;;;;;;;12.93;12.23;;;;;;;;;;5062404;28;20025;-70
2023/12/12 09:43:17;;;;;;;13.98;13.18;;;;;;;;;;5065143;28;20085;-68
2023/12/12 09:45:45;;;;;;;14.02;13.23;;;;;;;;;;5061762;28;20412;-70
2023/12/12 09:48:10;;;;;;;14.05;13.27;;;;;;;;;;5062286;28;20032;-68
2023/12/12 09:50:36;;;;;;;14.60;13.80;;;;;;;;;;5061609;28;20075;-72
2023/12/12 09:53:02;;;;;;;13.20;12.50;;;;;;;;;;5058599;28;20025;-71
2023/12/12 09:55:28;;;;;;;13.93;13.13;;;;;;;;;;5070435;28;20028;-71
2023/12/12 09:57:53;;;;;;;13.63;12.93;;;;;;;;;;5067126;28;20472;-68
2023/12/12 10:00:21;;;;;;;14.85;13.98;;;;;;;;;;5064523;28;20028;-72
2023/12/12 10:02:47;;;;;;;13.55;12.85;;;;;;;;;;5069841;28;20036;-70
2023/12/12 10:05:13;;;;;;;13.80;13.05;;;;;;;;;;5069273;28;20434;-68
2023/12/12 10:07:40;;;;;;;14.25;13.45;;;;;;;;;;5059417;28;20040;-71
2023/12/12 10:10:07;;;;;;;13.75;13.02;;;;;;;;;;5066549;28;20063;-66
2023/12/12 10:12:33;;;;;;;15.15;14.25;;;;;;;;;;5062432;28;20099;-67
2023/12/12 10:14:58;;;;;;;13.75;13.05;;;;;;;;;;5059114;28;20436;-67
2023/12/12 10:17:25;;;;;;;14.98;14.07;;;;;;;;;;5057301;28;20036;-69
2023/12/12 10:20:03;;;;;;;14.18;13.38;;;;;;;;;;5054838;28;20033;-71
2023/12/12 10:22:31;;;;;;;15.32;14.43;;;;;;;;;;5056211;28;20531;-70
2023/12/12 10:25:14;;;;;;;13.95;13.18;;;;;;;;;;5053091;28;20039;-71
2023/12/12 10:27:43;;;;;;;15.23;14.32;;;;;;;;;;5050941;28;20031;-69
2023/12/12 10:30:10;;;;;;;15.35;14.45;;;;;;;;;;5055106;28;20036;-67
2023/12/12 10:32:36;;;;;;;14.80;13.95;;;;;;;;;;5051914;28;20507;-70
2023/12/12 10:35:01;;;;;;;15.65;14.73;;;;;;;;;;5052765;28;20032;-69
2023/12/12 10:37:27;;;;;;;14.55;13.75;;;;;;;;;;5052252;28;20200;-68
2023/12/12 10:39:52;;;;;;;13.85;13.15;;;;;;;;;;5055512;28;20933;-69
2023/12/12 10:42:17;;;;;;;15.32;14.43;;;;;;;;;;5051541;28;20035;-67
2023/12/12 10:44:46;;;;;;;14.55;13.75;;;;;;;;;;5053273;28;20021;-67
2023/12/12 10:47:13;;;;;;;14.98;14.13;;;;;;;;;;5053709;28;20075;-66
2023/12/12 10:49:41;;;;;;;15.30;14.40;;;;;;;;;;5052532;28;20025;-66
2023/12/12 10:52:08;;;;;;;16.13;15.13;;;;;;;;;;5053002;28;22866;-69
2023/12/12 10:54:35;;;;;;;16.17;15.18;;;;;;;;;;5056434;28;20460;-69
2023/12/12 10:57:01;;;;;;;15.40;14.50;;;;;;;;;;5051869;28;20023;-71
2023/12/12 10:59:27;;;;;;;15.93;14.95;;;;;;;;;;5051964;28;20140;-69
2023/12/12 11:01:53;;;;;;;15.82;14.85;;;;;;;;;;5054377;28;20504;-66
2023/12/12 11:04:20;;;;;;;14.65;13.85;;;;;;;;;;5053077;28;20432;-68
2023/12/12 11:06:46;;;;;;;15.57;14.68;;;;;;;;;;5050548;28;20029;-70
2023/12/12 11:09:13;;;;;;;14.35;13.55;;;;;;;;;;5058157;28;20070;-68
2023/12/12 11:11:43;;;;;;;16.10;15.13;;;;;;;;;;5051460;28;20029;-67
2023/12/12 11:14:09;;;;;;;14.98;14.10;;;;;;;;;;5052026;28;20472;-69
2023/12/12 11:16:34;;;;;;;14.80;13.98;;;;;;;;;;5059393;28;20044;-66
2023/12/12 11:19:03;;;;;;;15.45;14.55;;;;;;;;;;5060948;28;20042;-68
2023/12/12 11:21:44;;;;;;;14.63;13.77;;;;;;;;;;5069304;28;20098;-67
2023/12/12 11:24:10;;;;;;;14.13;13.32;;;;;;;;;;5069743;28;20589;-71
2023/12/12 11:26:36;;;;;;;14.50;13.70;;;;;;;;;;5054656;28;20028;-70
2023/12/12 11:29:04;;;;;;;14.85;13.98;;;;;;;;;;5057375;28;20135;-69
2023/12/12 11:31:33;;;;;;;14.75;13.90;;;;;;;;;;5051588;28;20495;-69
2023/12/12 11:34:05;;;;;;;14.98;14.10;;;;;;;;;;5053395;28;20076;-72
2023/12/12 11:36:57;;;;;;;15.35;14.45;;;;;;;;;;5054167;28;20024;-70
2023/12/12 11:39:27;;;;;;;15.63;14.70;;;;;;;;;;5049978;28;20044;-68
2023/12/12 11:41:52;;;;;;;16.30;15.30;;;;;;;;;;5055326;28;20442;-70
2023/12/12 11:44:19;;;;;;;17.17;16.08;;;;;;;;;;5052866;28;20032;-68
2023/12/12 11:46:44;;;;;;;15.18;14.27;;;;;;;;;;5050575;28;20500;-70
2023/12/12 11:49:22;;;;;;;14.15;13.35;;;;;;;;;;5051822;28;20033;-68
2023/12/12 11:51:49;;;;;;;14.00;13.23;;;;;;;;;;5052298;28;20448;-70
2023/12/12 11:54:24;;;;;;;14.88;14.02;;;;;;;;;;5051894;28;20124;-69
2023/12/12 11:56:57;;;;;;;14.55;13.75;;;;;;;;;;5057926;28;20480;-67
2023/12/12 11:59:23;;;;;;;17.88;16.67;;;;;;;;;;5051467;28;20040;-69
2023/12/12 12:01:49;;;;;;;15.23;14.32;;;;;;;;;;5051594;28;20066;-68
2023/12/12 12:04:14;;;;;;;14.90;14.05;;;;;;;;;;5050968;28;20036;-69
2023/12/12 12:06:40;;;;;;;14.90;14.00;;;;;;;;;;5049959;28;20047;-70
2023/12/12 12:09:06;;;;;;;17.08;16.00;;;;;;;;;;5052178;28;20959;-72
2023/12/12 12:11:35;;;;;;;15.30;14.40;;;;;;;;;;5053471;28;20027;-70
2023/12/12 12:14:01;;;;;;;15.45;14.55;;;;;;;;;;5053688;28;20056;-70
2023/12/12 12:16:26;;;;;;;14.90;14.00;;;;;;;;;;5054110;28;20136;-70
2023/12/12 12:18:51;;;;;;;16.73;15.70;;;;;;;;;;5058476;28;20516;-70
2023/12/12 12:21:17;;;;;;;14.77;13.90;;;;;;;;;;5051598;28;20112;-67
2023/12/12 12:23:42;;;;;;;15.80;14.80;;;;;;;;;;5050867;28;20500;-68
2023/12/12 12:26:08;;;;;;;14.10;13.30;;;;;;;;;;5053647;28;20107;-66
2023/12/12 12:28:34;;;;;;;14.10;13.30;;;;;;;;;;5059890;28;20427;-69
2023/12/12 12:31:00;;;;;;;13.05;12.35;;;;;;;;;;5061305;28;20031;-68
2023/12/12 12:33:32;;;;;;;13.25;12.55;;;;;;;;;;5061573;28;20028;-69
2023/12/12 12:35:57;;;;;;;14.00;13.20;;;;;;;;;;5063889;28;20024;-69
2023/12/12 12:38:26;;;;;;;13.40;12.70;;;;;;;;;;5059039;28;20051;-71
2023/12/12 12:40:52;;;;;;;13.75;13.00;;;;;;;;;;5071156;28;20020;-64
2023/12/12 12:43:18;;;;;;;15.30;14.40;;;;;;;;;;5059310;28;20089;-67
2023/12/12 12:45:45;;;;;;;14.50;13.70;;;;;;;;;;5060054;28;20129;-65
2023/12/12 12:48:10;;;;;;;13.55;12.85;;;;;;;;;;5064368;28;20066;-66
2023/12/12 12:50:41;;;;;;;14.00;13.20;;;;;;;;;;5063581;28;20024;-66
2023/12/12 12:53:07;;;;;;;15.00;14.10;;;;;;;;;;5063353;28;20411;-66
2023/12/12 12:55:34;;;;;;;13.52;12.82;;;;;;;;;;5061431;28;20032;-66
2023/12/12 12:57:59;;;;;;;14.85;13.95;;;;;;;;;;5065687;28;20028;-65
2023/12/12 13:00:26;;;;;;;14.90;14.00;;;;;;;;;;5060303;28;20190;-65
2023/12/12 13:02:51;;;;;;;14.55;13.73;;;;;;;;;;5057663;28;20029;-70
2023/12/12 13:05:17;;;;;;;14.15;13.35;;;;;;;;;;5061205;28;20043;-69
2023/12/12 13:07:43;;;;;;;13.88;13.10;;;;;;;;;;5063541;28;20433;-68
2023/12/12 13:10:10;;;;;;;14.35;13.55;;;;;;;;;;5063283;28;20019;-69
2023/12/12 13:12:36;;;;;;;13.40;12.70;;;;;;;;;;5055211;28;20067;-68
2023/12/12 13:15:03;;;;;;;14.50;13.68;;;;;;;;;;5057215;28;20656;-69
2023/12/12 13:17:28;;;;;;;13.90;13.13;;;;;;;;;;5055214;28;20021;-73
2023/12/12 13:19:54;;;;;;;13.30;12.60;;;;;;;;;;5061137;28;20029;-72
2023/12/12 13:22:19;;;;;;;13.80;13.02;;;;;;;;;;5061535;28;20027;-71
2023/12/12 13:24:45;;;;;;;13.43;12.73;;;;;;;;;;5060252;28;20471;-70
2023/12/12 13:27:10;;;;;;;14.05;13.27;;;;;;;;;;5062529;28;20051;-68
2023/12/12 13:29:36;;;;;;;16.25;15.25;;;;;;;;;;5056526;28;20099;-71
2023/12/12 13:32:01;;;;;;;14.35;13.55;;;;;;;;;;5055380;28;20069;-73
2023/12/12 13:34:26;;;;;;;13.70;13.00;;;;;;;;;;5063021;28;20108;-68
2023/12/12 13:36:52;;;;;;;14.45;13.65;;;;;;;;;;5059816;28;20130;-68
2023/12/12 13:39:17;;;;;;;14.13;13.32;;;;;;;;;;5058626;28;20039;-69
2023/12/12 13:41:44;;;;;;;14.43;13.63;;;;;;;;;;5056975;28;20023;-67
2023/12/12 13:44:10;;;;;;;13.98;13.18;;;;;;;;;;5060768;28;20051;-68
2023/12/12 13:46:35;;;;;;;13.63;12.93;;;;;;;;;;5062034;28;20437;-72
2023/12/12 13:49:01;;;;;;;13.85;13.10;;;;;;;;;;5057499;28;20021;-69
2023/12/12 13:51:26;;;;;;;14.52;13.73;;;;;;;;;;5061866;28;20062;-71
2023/12/12 13:53:52;;;;;;;13.98;13.18;;;;;;;;;;5061723;28;20028;-70
2023/12/12 13:56:17;;;;;;;15.32;14.40;;;;;;;;;;5058939;28;20427;-66
2023/12/12 13:58:42;;;;;;;15.48;14.55;;;;;;;;;;5054640;28;20021;-68
2023/12/12 14:01:08;;;;;;;14.60;13.75;;;;;;;;;;5057994;28;20050;-68
2023/12/12 14:03:33;;;;;;;15.15;14.25;;;;;;;;;;5058447;28;20533;-69
2023/12/12 14:05:58;;;;;;;14.77;13.98;;;;;;;;;;5060502;28;20008;-69
2023/12/12 14:08:24;;;;;;;15.55;14.63;;;;;;;;;;5059056;28;20361;-71